sensor_id;sensor_type;location;lat;lon;timestamp;P1;durP1;ratioP1;P2;durP2;ratioP2
54841;SDS011;40741;45.002;7.536;2024-02-28T00:02:09;1.58;;;1.20;;
54841;SDS011;40741;45.002;7.536;2024-02-28T00:04:35;2.60;;;1.50;;
54841;SDS011;40741;45.002;7.536;2024-02-28T00:07:01;1.52;;;1.25;;
54841;SDS011;40741;45.002;7.536;2024-02-28T00:09:27;1.98;;;1.50;;
54841;SDS011;40741;45.002;7.536;2024-02-28T00:11:53;1.45;;;0.98;;
54841;SDS011;40741;45.002;7.536;2024-02-28T00:14:19;2.10;;;1.30;;
54841;SDS011;40741;45.002;7.536;2024-02-28T00:16:45;2.22;;;1.48;;
54841;SDS011;40741;45.002;7.536;2024-02-28T00:19:12;1.10;;;0.90;;
54841;SDS011;40741;45.002;7.536;2024-02-28T00:21:39;1.10;;;1.00;;
54841;SDS011;40741;45.002;7.536;2024-02-28T00:24:05;1.35;;;0.80;;
54841;SDS011;40741;45.002;7.536;2024-02-28T00:26:32;0.80;;;0.70;;
54841;SDS011;40741;45.002;7.536;2024-02-28T00:28:57;0.98;;;0.63;;
54841;SDS011;40741;45.002;7.536;2024-02-28T00:31:23;2.78;;;0.70;;
54841;SDS011;40741;45.002;7.536;2024-02-28T00:33:49;0.95;;;0.57;;
54841;SDS011;40741;45.002;7.536;2024-02-28T00:36:15;0.40;;;0.40;;
54841;SDS011;40741;45.002;7.536;2024-02-28T00:38:42;1.23;;;0.63;;
54841;SDS011;40741;45.002;7.536;2024-02-28T00:41:08;0.63;;;0.60;;
54841;SDS011;40741;45.002;7.536;2024-02-28T00:43:34;0.52;;;0.50;;
54841;SDS011;40741;45.002;7.536;2024-02-28T00:46:00;1.23;;;0.80;;
54841;SDS011;40741;45.002;7.536;2024-02-28T00:48:26;1.05;;;0.60;;
54841;SDS011;40741;45.002;7.536;2024-02-28T00:50:52;0.90;;;0.70;;
54841;SDS011;40741;45.002;7.536;2024-02-28T00:53:18;0.80;;;0.60;;
54841;SDS011;40741;45.002;7.536;2024-02-28T00:55:44;1.40;;;0.60;;
54841;SDS011;40741;45.002;7.536;2024-02-28T00:58:10;1.25;;;0.60;;
54841;SDS011;40741;45.002;7.536;2024-02-28T01:00:36;1.73;;;0.73;;
54841;SDS011;40741;45.002;7.536;2024-02-28T01:03:02;1.25;;;0.70;;
54841;SDS011;40741;45.002;7.536;2024-02-28T01:05:29;0.93;;;0.60;;
54841;SDS011;40741;45.002;7.536;2024-02-28T01:07:55;1.48;;;0.80;;
54841;SDS011;40741;45.002;7.536;2024-02-28T01:10:21;1.30;;;0.80;;
54841;SDS011;40741;45.002;7.536;2024-02-28T01:12:47;1.25;;;0.60;;
54841;SDS011;40741;45.002;7.536;2024-02-28T01:15:13;1.02;;;0.70;;
54841;SDS011;40741;45.002;7.536;2024-02-28T01:17:39;0.77;;;0.68;;
54841;SDS011;40741;45.002;7.536;2024-02-28T01:20:05;1.88;;;0.50;;
54841;SDS011;40741;45.002;7.536;2024-02-28T01:22:35;0.75;;;0.60;;
54841;SDS011;40741;45.002;7.536;2024-02-28T01:25:02;1.83;;;0.70;;
54841;SDS011;40741;45.002;7.536;2024-02-28T01:27:28;1.25;;;0.65;;
54841;SDS011;40741;45.002;7.536;2024-02-28T01:29:54;0.90;;;0.50;;
54841;SDS011;40741;45.002;7.536;2024-02-28T01:32:20;2.05;;;0.70;;
54841;SDS011;40741;45.002;7.536;2024-02-28T01:34:46;2.83;;;0.60;;
54841;SDS011;40741;45.002;7.536;2024-02-28T01:37:12;0.40;;;0.40;;
54841;SDS011;40741;45.002;7.536;2024-02-28T01:39:38;1.75;;;0.75;;
54841;SDS011;40741;45.002;7.536;2024-02-28T01:42:04;0.40;;;0.40;;
54841;SDS011;40741;45.002;7.536;2024-02-28T01:44:30;0.32;;;0.32;;
54841;SDS011;40741;45.002;7.536;2024-02-28T01:46:56;0.85;;;0.40;;
54841;SDS011;40741;45.002;7.536;2024-02-28T01:49:23;0.65;;;0.40;;
54841;SDS011;40741;45.002;7.536;2024-02-28T01:51:49;0.50;;;0.50;;
54841;SDS011;40741;45.002;7.536;2024-02-28T01:54:16;0.40;;;0.30;;
54841;SDS011;40741;45.002;7.536;2024-02-28T01:56:42;0.40;;;0.40;;
54841;SDS011;40741;45.002;7.536;2024-02-28T01:59:09;0.30;;;0.30;;
54841;SDS011;40741;45.002;7.536;2024-02-28T02:01:36;1.25;;;0.40;;
54841;SDS011;40741;45.002;7.536;2024-02-28T02:04:02;0.65;;;0.38;;
54841;SDS011;40741;45.002;7.536;2024-02-28T02:06:29;0.40;;;0.40;;
54841;SDS011;40741;45.002;7.536;2024-02-28T02:08:55;1.02;;;0.50;;
54841;SDS011;40741;45.002;7.536;2024-02-28T02:11:21;2.25;;;0.40;;
54841;SDS011;40741;45.002;7.536;2024-02-28T02:13:50;0.40;;;0.30;;
54841;SDS011;40741;45.002;7.536;2024-02-28T02:16:17;0.57;;;0.30;;
54841;SDS011;40741;45.002;7.536;2024-02-28T02:18:43;0.75;;;0.40;;
54841;SDS011;40741;45.002;7.536;2024-02-28T02:21:10;0.85;;;0.50;;
54841;SDS011;40741;45.002;7.536;2024-02-28T02:23:37;1.27;;;0.50;;
54841;SDS011;40741;45.002;7.536;2024-02-28T02:26:06;0.68;;;0.40;;
54841;SDS011;40741;45.002;7.536;2024-02-28T02:28:32;0.75;;;0.35;;
54841;SDS011;40741;45.002;7.536;2024-02-28T02:30:58;0.65;;;0.50;;
54841;SDS011;40741;45.002;7.536;2024-02-28T02:33:24;0.82;;;0.40;;
54841;SDS011;40741;45.002;7.536;2024-02-28T02:35:51;0.40;;;0.40;;
54841;SDS011;40741;45.002;7.536;2024-02-28T02:38:17;2.05;;;0.68;;
54841;SDS011;40741;45.002;7.536;2024-02-28T02:40:43;0.73;;;0.50;;
54841;SDS011;40741;45.002;7.536;2024-02-28T02:43:10;0.50;;;0.50;;
54841;SDS011;40741;45.002;7.536;2024-02-28T02:45:36;0.40;;;0.40;;
54841;SDS011;40741;45.002;7.536;2024-02-28T02:48:02;0.93;;;0.57;;
54841;SDS011;40741;45.002;7.536;2024-02-28T02:50:28;0.50;;;0.50;;
54841;SDS011;40741;45.002;7.536;2024-02-28T02:52:54;0.65;;;0.40;;
54841;SDS011;40741;45.002;7.536;2024-02-28T02:55:20;0.73;;;0.60;;
54841;SDS011;40741;45.002;7.536;2024-02-28T02:57:46;0.50;;;0.50;;
54841;SDS011;40741;45.002;7.536;2024-02-28T03:00:12;0.63;;;0.47;;
54841;SDS011;40741;45.002;7.536;2024-02-28T03:02:38;0.50;;;0.50;;
54841;SDS011;40741;45.002;7.536;2024-02-28T03:05:05;0.50;;;0.50;;
54841;SDS011;40741;45.002;7.536;2024-02-28T03:07:31;0.40;;;0.40;;
54841;SDS011;40741;45.002;7.536;2024-02-28T03:09:58;0.40;;;0.40;;
54841;SDS011;40741;45.002;7.536;2024-02-28T03:12:24;2.00;;;0.50;;
54841;SDS011;40741;45.002;7.536;2024-02-28T03:14:50;0.47;;;0.40;;
54841;SDS011;40741;45.002;7.536;2024-02-28T03:17:16;0.40;;;0.40;;
54841;SDS011;40741;45.002;7.536;2024-02-28T03:19:42;0.65;;;0.47;;
54841;SDS011;40741;45.002;7.536;2024-02-28T03:22:08;0.80;;;0.60;;
54841;SDS011;40741;45.002;7.536;2024-02-28T03:24:34;0.98;;;0.50;;
54841;SDS011;40741;45.002;7.536;2024-02-28T03:27:01;3.25;;;1.15;;
54841;SDS011;40741;45.002;7.536;2024-02-28T03:29:27;3.55;;;0.80;;
54841;SDS011;40741;45.002;7.536;2024-02-28T03:31:53;3.15;;;0.80;;
54841;SDS011;40741;45.002;7.536;2024-02-28T03:34:19;1.20;;;0.70;;
54841;SDS011;40741;45.002;7.536;2024-02-28T03:36:45;1.63;;;0.70;;
54841;SDS011;40741;45.002;7.536;2024-02-28T03:39:11;3.55;;;0.55;;
54841;SDS011;40741;45.002;7.536;2024-02-28T03:41:37;1.20;;;0.65;;
54841;SDS011;40741;45.002;7.536;2024-02-28T03:44:03;1.25;;;0.85;;
54841;SDS011;40741;45.002;7.536;2024-02-28T03:46:29;5.68;;;1.95;;
54841;SDS011;40741;45.002;7.536;2024-02-28T03:48:55;2.80;;;1.20;;
54841;SDS011;40741;45.002;7.536;2024-02-28T03:51:21;3.53;;;1.90;;
54841;SDS011;40741;45.002;7.536;2024-02-28T03:53:47;3.95;;;1.33;;
54841;SDS011;40741;45.002;7.536;2024-02-28T03:56:13;1.17;;;0.90;;
54841;SDS011;40741;45.002;7.536;2024-02-28T03:58:47;2.80;;;0.73;;
54841;SDS011;40741;45.002;7.536;2024-02-28T04:01:12;0.95;;;0.68;;
54841;SDS011;40741;45.002;7.536;2024-02-28T04:03:38;1.80;;;0.68;;
54841;SDS011;40741;45.002;7.536;2024-02-28T04:06:04;0.75;;;0.60;;
54841;SDS011;40741;45.002;7.536;2024-02-28T04:08:30;0.47;;;0.47;;
54841;SDS011;40741;45.002;7.536;2024-02-28T04:10:56;2.40;;;0.60;;
54841;SDS011;40741;45.002;7.536;2024-02-28T04:13:22;0.57;;;0.50;;
54841;SDS011;40741;45.002;7.536;2024-02-28T04:15:48;0.60;;;0.50;;
54841;SDS011;40741;45.002;7.536;2024-02-28T04:18:14;4.97;;;0.82;;
54841;SDS011;40741;45.002;7.536;2024-02-28T04:20:40;1.77;;;1.05;;
54841;SDS011;40741;45.002;7.536;2024-02-28T04:23:06;1.60;;;1.02;;
54841;SDS011;40741;45.002;7.536;2024-02-28T04:25:32;0.88;;;0.70;;
54841;SDS011;40741;45.002;7.536;2024-02-28T04:27:59;0.77;;;0.65;;
54841;SDS011;40741;45.002;7.536;2024-02-28T04:30:25;2.05;;;0.57;;
54841;SDS011;40741;45.002;7.536;2024-02-28T04:32:51;0.47;;;0.47;;
54841;SDS011;40741;45.002;7.536;2024-02-28T04:35:17;1.17;;;0.65;;
54841;SDS011;40741;45.002;7.536;2024-02-28T04:37:44;1.42;;;0.50;;
54841;SDS011;40741;45.002;7.536;2024-02-28T04:40:10;0.85;;;0.50;;
54841;SDS011;40741;45.002;7.536;2024-02-28T04:42:36;1.55;;;0.57;;
54841;SDS011;40741;45.002;7.536;2024-02-28T04:45:08;0.40;;;0.40;;
54841;SDS011;40741;45.002;7.536;2024-02-28T04:47:34;2.45;;;0.43;;
54841;SDS011;40741;45.002;7.536;2024-02-28T04:50:01;0.82;;;0.50;;
54841;SDS011;40741;45.002;7.536;2024-02-28T04:52:29;0.65;;;0.50;;
54841;SDS011;40741;45.002;7.536;2024-02-28T04:54:55;0.60;;;0.40;;
54841;SDS011;40741;45.002;7.536;2024-02-28T04:57:21;1.23;;;0.47;;
54841;SDS011;40741;45.002;7.536;2024-02-28T04:59:47;1.30;;;0.50;;
54841;SDS011;40741;45.002;7.536;2024-02-28T05:02:14;1.10;;;0.47;;
54841;SDS011;40741;45.002;7.536;2024-02-28T05:04:40;2.15;;;0.55;;
54841;SDS011;40741;45.002;7.536;2024-02-28T05:07:06;1.13;;;0.40;;
54841;SDS011;40741;45.002;7.536;2024-02-28T05:09:32;0.30;;;0.30;;
54841;SDS011;40741;45.002;7.536;2024-02-28T05:11:58;1.00;;;0.50;;
54841;SDS011;40741;45.002;7.536;2024-02-28T05:14:24;0.40;;;0.40;;
54841;SDS011;40741;45.002;7.536;2024-02-28T05:16:50;0.70;;;0.50;;
54841;SDS011;40741;45.002;7.536;2024-02-28T05:19:16;0.60;;;0.50;;
54841;SDS011;40741;45.002;7.536;2024-02-28T05:21:43;0.75;;;0.65;;
54841;SDS011;40741;45.002;7.536;2024-02-28T05:24:09;1.17;;;0.60;;
54841;SDS011;40741;45.002;7.536;2024-02-28T05:26:35;1.13;;;0.55;;
54841;SDS011;40741;45.002;7.536;2024-02-28T05:29:02;0.50;;;0.50;;
54841;SDS011;40741;45.002;7.536;2024-02-28T05:31:28;1.38;;;0.80;;
54841;SDS011;40741;45.002;7.536;2024-02-28T05:33:55;3.75;;;1.10;;
54841;SDS011;40741;45.002;7.536;2024-02-28T05:36:25;1.52;;;0.95;;
54841;SDS011;40741;45.002;7.536;2024-02-28T05:38:52;4.35;;;1.60;;
54841;SDS011;40741;45.002;7.536;2024-02-28T05:41:18;4.25;;;2.00;;
54841;SDS011;40741;45.002;7.536;2024-02-28T05:43:44;3.50;;;1.35;;
54841;SDS011;40741;45.002;7.536;2024-02-28T05:46:10;1.38;;;1.00;;
54841;SDS011;40741;45.002;7.536;2024-02-28T05:48:37;2.60;;;0.80;;
54841;SDS011;40741;45.002;7.536;2024-02-28T05:51:03;0.82;;;0.82;;
54841;SDS011;40741;45.002;7.536;2024-02-28T05:53:29;1.05;;;0.85;;
54841;SDS011;40741;45.002;7.536;2024-02-28T05:56:03;2.45;;;1.00;;
54841;SDS011;40741;45.002;7.536;2024-02-28T05:58:29;1.13;;;0.77;;
54841;SDS011;40741;45.002;7.536;2024-02-28T06:00:55;1.15;;;0.75;;
54841;SDS011;40741;45.002;7.536;2024-02-28T06:03:21;1.73;;;0.90;;
54841;SDS011;40741;45.002;7.536;2024-02-28T06:05:47;0.82;;;0.68;;
54841;SDS011;40741;45.002;7.536;2024-02-28T06:08:13;1.00;;;0.80;;
54841;SDS011;40741;45.002;7.536;2024-02-28T06:10:40;2.60;;;0.68;;
54841;SDS011;40741;45.002;7.536;2024-02-28T06:13:07;3.00;;;1.00;;
54841;SDS011;40741;45.002;7.536;2024-02-28T06:15:33;3.80;;;1.20;;
54841;SDS011;40741;45.002;7.536;2024-02-28T06:17:59;2.63;;;1.05;;
54841;SDS011;40741;45.002;7.536;2024-02-28T06:20:26;1.25;;;0.70;;
54841;SDS011;40741;45.002;7.536;2024-02-28T06:22:52;1.58;;;1.00;;
54841;SDS011;40741;45.002;7.536;2024-02-28T06:25:18;1.67;;;1.27;;
54841;SDS011;40741;45.002;7.536;2024-02-28T06:27:47;1.63;;;0.95;;
54841;SDS011;40741;45.002;7.536;2024-02-28T06:30:13;2.30;;;1.80;;
54841;SDS011;40741;45.002;7.536;2024-02-28T06:32:39;3.75;;;2.25;;
54841;SDS011;40741;45.002;7.536;2024-02-28T06:35:05;6.18;;;3.03;;
54841;SDS011;40741;45.002;7.536;2024-02-28T06:37:32;8.30;;;5.03;;
54841;SDS011;40741;45.002;7.536;2024-02-28T06:39:58;10.65;;;5.95;;
54841;SDS011;40741;45.002;7.536;2024-02-28T06:42:24;11.73;;;6.65;;
54841;SDS011;40741;45.002;7.536;2024-02-28T06:44:50;9.00;;;5.15;;
54841;SDS011;40741;45.002;7.536;2024-02-28T06:47:16;6.32;;;4.53;;
54841;SDS011;40741;45.002;7.536;2024-02-28T06:49:43;4.18;;;2.55;;
54841;SDS011;40741;45.002;7.536;2024-02-28T06:52:09;3.70;;;2.72;;
54841;SDS011;40741;45.002;7.536;2024-02-28T06:54:35;4.15;;;2.60;;
54841;SDS011;40741;45.002;7.536;2024-02-28T06:57:01;3.15;;;1.80;;
54841;SDS011;40741;45.002;7.536;2024-02-28T06:59:27;4.00;;;1.70;;
54841;SDS011;40741;45.002;7.536;2024-02-28T07:01:53;3.45;;;1.50;;
54841;SDS011;40741;45.002;7.536;2024-02-28T07:04:19;1.90;;;1.52;;
54841;SDS011;40741;45.002;7.536;2024-02-28T07:06:45;2.38;;;1.20;;
54841;SDS011;40741;45.002;7.536;2024-02-28T07:09:11;1.95;;;1.30;;
54841;SDS011;40741;45.002;7.536;2024-02-28T07:11:38;1.73;;;1.17;;
54841;SDS011;40741;45.002;7.536;2024-02-28T07:14:04;1.75;;;1.02;;
54841;SDS011;40741;45.002;7.536;2024-02-28T07:16:30;2.10;;;1.25;;
54841;SDS011;40741;45.002;7.536;2024-02-28T07:19:00;1.20;;;0.90;;
54841;SDS011;40741;45.002;7.536;2024-02-28T07:21:26;1.50;;;0.93;;
54841;SDS011;40741;45.002;7.536;2024-02-28T07:23:52;1.60;;;0.80;;
54841;SDS011;40741;45.002;7.536;2024-02-28T07:26:19;0.93;;;0.85;;
54841;SDS011;40741;45.002;7.536;2024-02-28T07:28:45;1.30;;;0.98;;
54841;SDS011;40741;45.002;7.536;2024-02-28T07:31:17;1.10;;;0.80;;
54841;SDS011;40741;45.002;7.536;2024-02-28T07:33:43;0.73;;;0.70;;
54841;SDS011;40741;45.002;7.536;2024-02-28T07:36:09;1.08;;;0.98;;
54841;SDS011;40741;45.002;7.536;2024-02-28T07:38:36;1.92;;;0.80;;
54841;SDS011;40741;45.002;7.536;2024-02-28T07:41:02;1.85;;;0.90;;
54841;SDS011;40741;45.002;7.536;2024-02-28T07:43:28;3.35;;;0.93;;
54841;SDS011;40741;45.002;7.536;2024-02-28T07:45:57;2.53;;;0.80;;
54841;SDS011;40741;45.002;7.536;2024-02-28T07:48:23;1.48;;;1.10;;
54841;SDS011;40741;45.002;7.536;2024-02-28T07:50:49;2.17;;;1.10;;
54841;SDS011;40741;45.002;7.536;2024-02-28T07:53:16;2.40;;;0.98;;
54841;SDS011;40741;45.002;7.536;2024-02-28T07:55:42;2.50;;;1.20;;
54841;SDS011;40741;45.002;7.536;2024-02-28T07:58:08;2.22;;;1.40;;
54841;SDS011;40741;45.002;7.536;2024-02-28T08:00:35;2.10;;;1.70;;
54841;SDS011;40741;45.002;7.536;2024-02-28T08:03:01;2.97;;;2.03;;
54841;SDS011;40741;45.002;7.536;2024-02-28T08:05:27;3.40;;;2.08;;
54841;SDS011;40741;45.002;7.536;2024-02-28T08:07:53;4.35;;;1.80;;
54841;SDS011;40741;45.002;7.536;2024-02-28T08:10:19;2.42;;;1.63;;
54841;SDS011;40741;45.002;7.536;2024-02-28T08:12:45;2.83;;;1.52;;
54841;SDS011;40741;45.002;7.536;2024-02-28T08:15:11;2.05;;;1.63;;
54841;SDS011;40741;45.002;7.536;2024-02-28T08:17:37;4.85;;;1.83;;
54841;SDS011;40741;45.002;7.536;2024-02-28T08:20:04;4.05;;;2.00;;
54841;SDS011;40741;45.002;7.536;2024-02-28T08:22:30;3.40;;;1.70;;
54841;SDS011;40741;45.002;7.536;2024-02-28T08:24:56;2.47;;;1.95;;
54841;SDS011;40741;45.002;7.536;2024-02-28T08:27:22;3.42;;;1.95;;
54841;SDS011;40741;45.002;7.536;2024-02-28T08:29:49;1.58;;;1.30;;
54841;SDS011;40741;45.002;7.536;2024-02-28T08:32:16;2.50;;;1.73;;
54841;SDS011;40741;45.002;7.536;2024-02-28T08:34:45;4.93;;;2.35;;
54841;SDS011;40741;45.002;7.536;2024-02-28T08:37:12;3.72;;;2.28;;
54841;SDS011;40741;45.002;7.536;2024-02-28T08:39:38;2.80;;;2.20;;
54841;SDS011;40741;45.002;7.536;2024-02-28T08:42:05;2.45;;;2.00;;
54841;SDS011;40741;45.002;7.536;2024-02-28T08:44:31;3.38;;;2.35;;
54841;SDS011;40741;45.002;7.536;2024-02-28T08:46:57;4.00;;;2.50;;
54841;SDS011;40741;45.002;7.536;2024-02-28T08:49:23;5.00;;;1.80;;
54841;SDS011;40741;45.002;7.536;2024-02-28T08:51:49;7.80;;;2.20;;
54841;SDS011;40741;45.002;7.536;2024-02-28T08:54:15;2.25;;;1.80;;
54841;SDS011;40741;45.002;7.536;2024-02-28T08:56:41;4.63;;;2.30;;
54841;SDS011;40741;45.002;7.536;2024-02-28T08:59:07;2.92;;;1.98;;
54841;SDS011;40741;45.002;7.536;2024-02-28T09:01:33;3.03;;;2.05;;
54841;SDS011;40741;45.002;7.536;2024-02-28T09:04:00;3.15;;;2.15;;
54841;SDS011;40741;45.002;7.536;2024-02-28T09:06:26;2.28;;;1.73;;
54841;SDS011;40741;45.002;7.536;2024-02-28T09:08:52;2.25;;;2.05;;
54841;SDS011;40741;45.002;7.536;2024-02-28T09:11:18;2.30;;;1.98;;
54841;SDS011;40741;45.002;7.536;2024-02-28T09:13:45;3.47;;;2.10;;
54841;SDS011;40741;45.002;7.536;2024-02-28T09:16:11;4.28;;;2.60;;
54841;SDS011;40741;45.002;7.536;2024-02-28T09:18:37;4.50;;;2.83;;
54841;SDS011;40741;45.002;7.536;2024-02-28T09:21:03;4.72;;;2.70;;
54841;SDS011;40741;45.002;7.536;2024-02-28T09:23:29;3.38;;;2.50;;
54841;SDS011;40741;45.002;7.536;2024-02-28T09:25:56;3.30;;;2.67;;
54841;SDS011;40741;45.002;7.536;2024-02-28T09:28:22;4.75;;;2.17;;
54841;SDS011;40741;45.002;7.536;2024-02-28T09:30:48;2.97;;;2.28;;
54841;SDS011;40741;45.002;7.536;2024-02-28T09:33:16;2.40;;;1.90;;
54841;SDS011;40741;45.002;7.536;2024-02-28T09:35:44;8.68;;;4.25;;
54841;SDS011;40741;45.002;7.536;2024-02-28T09:38:10;6.40;;;4.10;;
54841;SDS011;40741;45.002;7.536;2024-02-28T09:40:36;8.38;;;3.40;;
54841;SDS011;40741;45.002;7.536;2024-02-28T09:43:05;4.75;;;3.55;;
54841;SDS011;40741;45.002;7.536;2024-02-28T09:45:37;5.75;;;4.25;;
54841;SDS011;40741;45.002;7.536;2024-02-28T09:48:03;4.05;;;3.55;;
54841;SDS011;40741;45.002;7.536;2024-02-28T09:50:29;5.10;;;2.85;;
54841;SDS011;40741;45.002;7.536;2024-02-28T09:52:56;5.65;;;3.25;;
54841;SDS011;40741;45.002;7.536;2024-02-28T09:55:22;5.28;;;3.92;;
54841;SDS011;40741;45.002;7.536;2024-02-28T09:57:48;5.07;;;3.53;;
54841;SDS011;40741;45.002;7.536;2024-02-28T10:00:15;3.85;;;3.20;;
54841;SDS011;40741;45.002;7.536;2024-02-28T10:02:43;6.05;;;3.78;;
54841;SDS011;40741;45.002;7.536;2024-02-28T10:05:10;5.18;;;3.25;;
54841;SDS011;40741;45.002;7.536;2024-02-28T10:07:36;4.50;;;3.58;;
54841;SDS011;40741;45.002;7.536;2024-02-28T10:10:02;4.05;;;2.83;;
54841;SDS011;40741;45.002;7.536;2024-02-28T10:12:29;4.25;;;2.70;;
54841;SDS011;40741;45.002;7.536;2024-02-28T10:14:55;3.58;;;2.60;;
54841;SDS011;40741;45.002;7.536;2024-02-28T10:17:21;3.90;;;2.65;;
54841;SDS011;40741;45.002;7.536;2024-02-28T10:19:46;4.20;;;2.92;;
54841;SDS011;40741;45.002;7.536;2024-02-28T10:22:12;4.00;;;2.83;;
54841;SDS011;40741;45.002;7.536;2024-02-28T10:24:38;5.22;;;3.67;;
54841;SDS011;40741;45.002;7.536;2024-02-28T10:27:04;4.45;;;3.50;;
54841;SDS011;40741;45.002;7.536;2024-02-28T10:29:30;7.05;;;4.35;;
54841;SDS011;40741;45.002;7.536;2024-02-28T10:31:59;10.13;;;4.88;;
54841;SDS011;40741;45.002;7.536;2024-02-28T10:34:26;8.32;;;5.00;;
54841;SDS011;40741;45.002;7.536;2024-02-28T10:36:52;8.02;;;4.70;;
54841;SDS011;40741;45.002;7.536;2024-02-28T10:39:18;5.40;;;3.95;;
54841;SDS011;40741;45.002;7.536;2024-02-28T10:41:46;5.30;;;3.40;;
54841;SDS011;40741;45.002;7.536;2024-02-28T10:44:14;7.03;;;3.95;;
54841;SDS011;40741;45.002;7.536;2024-02-28T10:46:40;7.88;;;4.03;;
54841;SDS011;40741;45.002;7.536;2024-02-28T10:49:06;6.63;;;4.72;;
54841;SDS011;40741;45.002;7.536;2024-02-28T10:51:34;9.60;;;5.20;;
54841;SDS011;40741;45.002;7.536;2024-02-28T10:56:36;9.18;;;4.38;;
54841;SDS011;40741;45.002;7.536;2024-02-28T10:59:03;8.10;;;3.95;;
54841;SDS011;40741;45.002;7.536;2024-02-28T11:01:31;5.88;;;3.47;;
54841;SDS011;40741;45.002;7.536;2024-02-28T11:03:57;6.65;;;3.90;;
54841;SDS011;40741;45.002;7.536;2024-02-28T11:06:23;5.07;;;3.67;;
54841;SDS011;40741;45.002;7.536;2024-02-28T11:08:51;9.10;;;5.70;;
54841;SDS011;40741;45.002;7.536;2024-02-28T11:11:21;10.32;;;5.85;;
54841;SDS011;40741;45.002;7.536;2024-02-28T11:13:51;4.97;;;3.45;;
54841;SDS011;40741;45.002;7.536;2024-02-28T11:16:25;5.32;;;2.40;;
54841;SDS011;40741;45.002;7.536;2024-02-28T11:18:51;5.55;;;2.33;;
54841;SDS011;40741;45.002;7.536;2024-02-28T11:21:17;2.70;;;1.77;;
54841;SDS011;40741;45.002;7.536;2024-02-28T11:23:47;5.78;;;2.20;;
54841;SDS011;40741;45.002;7.536;2024-02-28T11:26:13;4.43;;;2.75;;
54841;SDS011;40741;45.002;7.536;2024-02-28T11:28:39;5.35;;;2.90;;
54841;SDS011;40741;45.002;7.536;2024-02-28T11:31:05;5.72;;;3.03;;
54841;SDS011;40741;45.002;7.536;2024-02-28T11:33:31;5.57;;;3.00;;
54841;SDS011;40741;45.002;7.536;2024-02-28T11:35:58;3.65;;;2.60;;
54841;SDS011;40741;45.002;7.536;2024-02-28T11:38:27;7.95;;;3.08;;
54841;SDS011;40741;45.002;7.536;2024-02-28T11:40:53;5.75;;;2.78;;
54841;SDS011;40741;45.002;7.536;2024-02-28T11:43:23;4.43;;;3.13;;
54841;SDS011;40741;45.002;7.536;2024-02-28T11:45:50;4.40;;;3.35;;
54841;SDS011;40741;45.002;7.536;2024-02-28T11:48:16;6.75;;;3.53;;
54841;SDS011;40741;45.002;7.536;2024-02-28T11:50:42;5.30;;;4.03;;
54841;SDS011;40741;45.002;7.536;2024-02-28T11:53:08;5.07;;;3.35;;
54841;SDS011;40741;45.002;7.536;2024-02-28T11:55:35;3.88;;;2.67;;
54841;SDS011;40741;45.002;7.536;2024-02-28T11:58:03;4.60;;;1.95;;
54841;SDS011;40741;45.002;7.536;2024-02-28T12:00:33;4.13;;;2.10;;
54841;SDS011;40741;45.002;7.536;2024-02-28T12:03:05;3.33;;;1.70;;
54841;SDS011;40741;45.002;7.536;2024-02-28T12:05:31;3.90;;;1.92;;
54841;SDS011;40741;45.002;7.536;2024-02-28T12:07:57;3.15;;;1.20;;
54841;SDS011;40741;45.002;7.536;2024-02-28T12:10:23;2.80;;;1.40;;
54841;SDS011;40741;45.002;7.536;2024-02-28T12:12:49;2.50;;;1.50;;
54841;SDS011;40741;45.002;7.536;2024-02-28T12:15:15;3.13;;;1.70;;
54841;SDS011;40741;45.002;7.536;2024-02-28T12:17:42;2.05;;;1.40;;
54841;SDS011;40741;45.002;7.536;2024-02-28T12:20:08;4.50;;;1.60;;
54841;SDS011;40741;45.002;7.536;2024-02-28T12:22:34;2.28;;;1.63;;
54841;SDS011;40741;45.002;7.536;2024-02-28T12:25:00;3.42;;;2.05;;
54841;SDS011;40741;45.002;7.536;2024-02-28T12:27:29;3.22;;;1.80;;
54841;SDS011;40741;45.002;7.536;2024-02-28T12:29:56;3.63;;;1.27;;
54841;SDS011;40741;45.002;7.536;2024-02-28T12:32:22;2.90;;;1.73;;
54841;SDS011;40741;45.002;7.536;2024-02-28T12:34:48;3.22;;;1.90;;
54841;SDS011;40741;45.002;7.536;2024-02-28T12:37:14;3.53;;;1.55;;
54841;SDS011;40741;45.002;7.536;2024-02-28T12:39:40;4.07;;;2.03;;
54841;SDS011;40741;45.002;7.536;2024-02-28T12:42:06;3.60;;;2.05;;
54841;SDS011;40741;45.002;7.536;2024-02-28T12:44:33;3.47;;;1.92;;
54841;SDS011;40741;45.002;7.536;2024-02-28T12:46:59;3.20;;;2.10;;
54841;SDS011;40741;45.002;7.536;2024-02-28T12:49:25;7.25;;;2.42;;
54841;SDS011;40741;45.002;7.536;2024-02-28T12:51:51;3.17;;;2.38;;
54841;SDS011;40741;45.002;7.536;2024-02-28T12:54:17;4.82;;;2.50;;
54841;SDS011;40741;45.002;7.536;2024-02-28T12:56:46;3.45;;;2.40;;
54841;SDS011;40741;45.002;7.536;2024-02-28T12:59:12;6.40;;;3.55;;
54841;SDS011;40741;45.002;7.536;2024-02-28T13:01:38;4.30;;;3.03;;
54841;SDS011;40741;45.002;7.536;2024-02-28T13:04:04;6.03;;;2.95;;
54841;SDS011;40741;45.002;7.536;2024-02-28T13:06:30;5.15;;;3.75;;
54841;SDS011;40741;45.002;7.536;2024-02-28T13:08:57;6.38;;;2.85;;
54841;SDS011;40741;45.002;7.536;2024-02-28T13:11:23;8.57;;;3.00;;
54841;SDS011;40741;45.002;7.536;2024-02-28T13:13:49;4.22;;;2.60;;
54841;SDS011;40741;45.002;7.536;2024-02-28T13:16:16;3.90;;;2.72;;
54841;SDS011;40741;45.002;7.536;2024-02-28T13:18:43;3.50;;;2.33;;
54841;SDS011;40741;45.002;7.536;2024-02-28T13:21:09;4.22;;;2.20;;
54841;SDS011;40741;45.002;7.536;2024-02-28T13:23:35;3.83;;;2.20;;
54841;SDS011;40741;45.002;7.536;2024-02-28T13:26:02;2.97;;;2.00;;
54841;SDS011;40741;45.002;7.536;2024-02-28T13:28:28;5.70;;;2.40;;
54841;SDS011;40741;45.002;7.536;2024-02-28T13:30:58;5.85;;;2.45;;
54841;SDS011;40741;45.002;7.536;2024-02-28T13:33:24;4.32;;;2.72;;
54841;SDS011;40741;45.002;7.536;2024-02-28T13:35:50;4.53;;;2.53;;
54841;SDS011;40741;45.002;7.536;2024-02-28T13:38:16;4.32;;;2.58;;
54841;SDS011;40741;45.002;7.536;2024-02-28T13:40:42;2.88;;;2.35;;
54841;SDS011;40741;45.002;7.536;2024-02-28T13:43:10;4.38;;;2.03;;
54841;SDS011;40741;45.002;7.536;2024-02-28T13:45:37;3.20;;;1.90;;
54841;SDS011;40741;45.002;7.536;2024-02-28T13:48:19;4.55;;;2.08;;
54841;SDS011;40741;45.002;7.536;2024-02-28T13:50:52;3.20;;;2.00;;
54841;SDS011;40741;45.002;7.536;2024-02-28T13:53:18;3.05;;;2.03;;
54841;SDS011;40741;45.002;7.536;2024-02-28T13:55:44;3.28;;;2.13;;
54841;SDS011;40741;45.002;7.536;2024-02-28T13:58:13;3.75;;;2.10;;
54841;SDS011;40741;45.002;7.536;2024-02-28T14:00:39;2.83;;;1.85;;
54841;SDS011;40741;45.002;7.536;2024-02-28T14:03:05;4.82;;;1.85;;
54841;SDS011;40741;45.002;7.536;2024-02-28T14:05:31;3.92;;;2.08;;
54841;SDS011;40741;45.002;7.536;2024-02-28T14:07:57;2.65;;;2.00;;
54841;SDS011;40741;45.002;7.536;2024-02-28T14:10:24;4.35;;;2.22;;
54841;SDS011;40741;45.002;7.536;2024-02-28T14:12:50;5.43;;;2.13;;
54841;SDS011;40741;45.002;7.536;2024-02-28T14:15:19;9.88;;;2.40;;
54841;SDS011;40741;45.002;7.536;2024-02-28T14:17:45;4.82;;;2.67;;
54841;SDS011;40741;45.002;7.536;2024-02-28T14:20:11;5.40;;;2.80;;
54841;SDS011;40741;45.002;7.536;2024-02-28T14:22:40;4.25;;;2.78;;
54841;SDS011;40741;45.002;7.536;2024-02-28T14:25:13;8.55;;;3.33;;
54841;SDS011;40741;45.002;7.536;2024-02-28T14:27:40;8.57;;;3.40;;
54841;SDS011;40741;45.002;7.536;2024-02-28T14:30:07;7.78;;;3.53;;
54841;SDS011;40741;45.002;7.536;2024-02-28T14:32:34;4.82;;;2.95;;
54841;SDS011;40741;45.002;7.536;2024-02-28T14:35:01;6.07;;;3.38;;
54841;SDS011;40741;45.002;7.536;2024-02-28T14:37:28;6.30;;;3.50;;
54841;SDS011;40741;45.002;7.536;2024-02-28T14:39:54;7.15;;;4.15;;
54841;SDS011;40741;45.002;7.536;2024-02-28T14:42:20;5.32;;;4.10;;
54841;SDS011;40741;45.002;7.536;2024-02-28T14:44:46;6.03;;;4.10;;
54841;SDS011;40741;45.002;7.536;2024-02-28T14:47:12;6.13;;;3.97;;